Time;durP1;ratioP1;P1;durP2;ratioP2;P2;SDS_P1;SDS_P2;PMS_P1;PMS_P2;Temp;Humidity;BMP_temperature;BMP_pressure;BME280_temperature;BME280_humidity;BME280_pressure;Samples;Min_cycle;Max_cycle;Signal;HPM_P1;HPM_P2
2024/03/29 00:00:16;;;;;;;2.20;0.93;;;;;;;;;;5885095;28;20071;-72
2024/03/29 00:03:06;;;;;;;0.35;0.35;;;;;;;;;;5884875;28;20053;-72
2024/03/29 00:05:56;;;;;;;0.47;0.47;;;;;;;;;;5885592;28;20045;-72
2024/03/29 00:08:46;;;;;;;0.63;0.63;;;;;;;;;;5884754;28;20399;-72
2024/03/29 00:11:36;;;;;;;0.80;0.80;;;;;;;;;;5884925;28;20049;-72
2024/03/29 00:14:26;;;;;;;0.98;0.88;;;;;;;;;;5884884;28;20479;-72
2024/03/29 00:17:16;;;;;;;0.60;0.52;;;;;;;;;;5884492;28;20051;-72
2024/03/29 00:20:06;;;;;;;0.43;0.43;;;;;;;;;;5884112;28;20128;-72
2024/03/29 00:22:57;;;;;;;1.17;0.73;;;;;;;;;;5885122;28;20063;-72
2024/03/29 00:25:47;;;;;;;0.57;0.57;;;;;;;;;;5884370;28;20102;-72
2024/03/29 00:28:38;;;;;;;0.80;0.80;;;;;;;;;;5884351;28;20461;-72
2024/03/29 00:31:28;;;;;;;0.75;0.65;;;;;;;;;;5884404;28;20141;-72
2024/03/29 00:34:17;;;;;;;1.58;1.20;;;;;;;;;;5884278;28;20052;-72
2024/03/29 00:37:07;;;;;;;2.15;1.40;;;;;;;;;;5884290;28;20112;-72
2024/03/29 00:39:57;;;;;;;0.80;0.63;;;;;;;;;;5884794;28;20140;-72
2024/03/29 00:42:46;;;;;;;0.57;0.57;;;;;;;;;;5884142;28;20057;-72
2024/03/29 00:45:36;;;;;;;0.70;0.60;;;;;;;;;;5867764;28;20478;-72
2024/03/29 00:48:26;;;;;;;0.63;0.63;;;;;;;;;;5884046;28;20175;-72
2024/03/29 00:51:16;;;;;;;0.73;0.73;;;;;;;;;;5884193;28;20049;-72
2024/03/29 00:54:06;;;;;;;0.65;0.65;;;;;;;;;;5883979;28;20053;-73
2024/03/29 00:56:56;;;;;;;1.10;1.00;;;;;;;;;;5884447;28;20040;-72
2024/03/29 00:59:46;;;;;;;0.85;0.85;;;;;;;;;;5883800;28;20045;-72
2024/03/29 01:02:36;;;;;;;9.25;1.23;;;;;;;;;;5882879;28;20053;-72
2024/03/29 01:05:26;;;;;;;1.08;1.00;;;;;;;;;;5862834;28;20049;-72
2024/03/29 01:08:16;;;;;;;1.70;1.13;;;;;;;;;;5860518;28;20057;-72
2024/03/29 01:11:05;;;;;;;1.55;1.27;;;;;;;;;;5860662;28;20395;-72
2024/03/29 01:13:55;;;;;;;6.40;1.25;;;;;;;;;;5861039;28;20072;-72
2024/03/29 01:16:45;;;;;;;5.68;2.10;;;;;;;;;;5860599;28;20049;-72
2024/03/29 01:19:35;;;;;;;1.25;0.93;;;;;;;;;;5860477;28;20415;-72
2024/03/29 01:22:25;;;;;;;0.98;0.90;;;;;;;;;;5860419;28;20049;-72
2024/03/29 01:25:17;;;;;;;1.13;1.00;;;;;;;;;;5860276;28;20111;-72
2024/03/29 01:28:07;;;;;;;0.77;0.77;;;;;;;;;;5860319;28;20407;-72
2024/03/29 01:30:58;;;;;;;1.67;1.58;;;;;;;;;;5860881;28;20049;-72
2024/03/29 01:33:49;;;;;;;0.88;0.80;;;;;;;;;;5864264;28;20045;-72
2024/03/29 01:36:38;;;;;;;7.00;1.67;;;;;;;;;;5864991;28;20065;-72
2024/03/29 01:39:31;;;;;;;3.35;1.77;;;;;;;;;;5848477;28;20095;-73
2024/03/29 01:42:21;;;;;;;0.63;0.63;;;;;;;;;;5864858;28;20053;-72
2024/03/29 01:45:10;;;;;;;2.78;1.50;;;;;;;;;;5864766;28;20487;-72
2024/03/29 01:48:00;;;;;;;1.20;1.10;;;;;;;;;;5865261;28;20053;-72
2024/03/29 01:50:53;;;;;;;0.90;0.90;;;;;;;;;;5864806;28;20068;-72
2024/03/29 01:53:44;;;;;;;2.08;1.15;;;;;;;;;;5848581;28;20407;-72
2024/03/29 01:56:35;;;;;;;0.82;0.82;;;;;;;;;;5864349;28;20102;-72
2024/03/29 01:59:27;;;;;;;1.63;1.33;;;;;;;;;;5864623;28;20067;-72
2024/03/29 02:02:17;;;;;;;2.38;1.25;;;;;;;;;;5864451;28;20060;-72
2024/03/29 02:05:07;;;;;;;1.17;1.08;;;;;;;;;;5864422;28;20519;-72
2024/03/29 02:07:58;;;;;;;3.53;1.23;;;;;;;;;;5864793;28;20407;-72
2024/03/29 02:10:49;;;;;;;0.77;0.77;;;;;;;;;;5864214;28;20061;-72
2024/03/29 02:13:40;;;;;;;1.58;1.48;;;;;;;;;;5864158;28;20050;-72
2024/03/29 02:16:29;;;;;;;1.67;1.10;;;;;;;;;;5864298;28;20041;-72
2024/03/29 02:19:19;;;;;;;1.60;1.15;;;;;;;;;;5863883;28;20084;-72
2024/03/29 02:22:14;;;;;;;1.33;1.23;;;;;;;;;;5863985;28;20056;-72
2024/03/29 02:25:05;;;;;;;1.02;1.00;;;;;;;;;;5864006;28;20045;-72
2024/03/29 02:27:56;;;;;;;2.08;1.10;;;;;;;;;;5848122;28;20056;-72
2024/03/29 02:30:45;;;;;;;2.35;1.17;;;;;;;;;;5863815;28;20056;-72
2024/03/29 02:33:35;;;;;;;2.60;0.82;;;;;;;;;;5863570;28;20049;-72
2024/03/29 02:36:25;;;;;;;1.30;1.13;;;;;;;;;;5863886;28;20491;-72
2024/03/29 02:39:15;;;;;;;0.90;0.90;;;;;;;;;;5863594;28;20049;-72
2024/03/29 02:42:05;;;;;;;4.07;1.77;;;;;;;;;;5863659;28;20367;-72
2024/03/29 02:44:55;;;;;;;2.70;1.50;;;;;;;;;;5863829;28;20107;-72
2024/03/29 02:47:45;;;;;;;6.15;1.67;;;;;;;;;;5863569;28;20045;-72
2024/03/29 02:50:35;;;;;;;1.05;0.95;;;;;;;;;;5863654;28;20041;-72
2024/03/29 02:53:24;;;;;;;1.38;1.27;;;;;;;;;;5863655;28;20479;-72
2024/03/29 02:56:18;;;;;;;1.23;1.13;;;;;;;;;;5863394;28;20150;-72
2024/03/29 02:59:08;;;;;;;1.45;1.35;;;;;;;;;;5863317;28;20045;-72
2024/03/29 03:01:58;;;;;;;7.35;2.45;;;;;;;;;;5863772;28;20057;-72
2024/03/29 03:04:47;;;;;;;2.03;1.10;;;;;;;;;;5863323;28;20618;-72
2024/03/29 03:10:56;;;;;;;1.10;1.00;;;;;;;;;;5879750;28;20053;-72
2024/03/29 03:13:46;;;;;;;1.05;0.65;;;;;;;;;;5863072;28;20422;-72
2024/03/29 03:16:35;;;;;;;1.75;1.48;;;;;;;;;;5862828;28;20045;-72
2024/03/29 03:19:25;;;;;;;1.10;1.00;;;;;;;;;;5863026;28;20049;-72
2024/03/29 03:22:15;;;;;;;1.40;1.30;;;;;;;;;;5862774;28;20562;-72
2024/03/29 03:25:05;;;;;;;1.83;0.90;;;;;;;;;;5862925;28;20427;-72
2024/03/29 03:27:55;;;;;;;3.45;1.90;;;;;;;;;;5863496;28;20049;-72
2024/03/29 03:30:45;;;;;;;1.38;1.20;;;;;;;;;;5862717;28;20037;-72
2024/03/29 03:33:34;;;;;;;1.40;1.20;;;;;;;;;;5862456;28;20407;-72
2024/03/29 03:36:24;;;;;;;1.38;1.27;;;;;;;;;;5862403;28;20052;-72
2024/03/29 03:39:14;;;;;;;5.90;1.15;;;;;;;;;;5862547;28;20052;-72
2024/03/29 03:42:04;;;;;;;0.70;0.70;;;;;;;;;;5862600;28;20052;-72
2024/03/29 03:44:54;;;;;;;1.40;0.90;;;;;;;;;;5862749;28;20084;-72
2024/03/29 03:47:44;;;;;;;1.35;1.27;;;;;;;;;;5862144;28;20049;-72
2024/03/29 03:50:34;;;;;;;1.95;0.65;;;;;;;;;;5845871;28;20438;-72
2024/03/29 03:53:24;;;;;;;1.67;1.13;;;;;;;;;;5862119;28;20041;-72
2024/03/29 03:56:14;;;;;;;1.10;1.10;;;;;;;;;;5861501;28;20068;-72
2024/03/29 03:59:03;;;;;;;4.82;1.67;;;;;;;;;;5861840;28;20041;-72
2024/03/29 04:01:54;;;;;;;0.40;0.40;;;;;;;;;;5862354;28;20073;-72
2024/03/29 04:04:47;;;;;;;0.85;0.85;;;;;;;;;;5861823;28;20050;-72
2024/03/29 04:07:37;;;;;;;0.75;0.75;;;;;;;;;;5862121;28;20156;-72
2024/03/29 04:10:27;;;;;;;0.60;0.55;;;;;;;;;;5862185;28;20045;-72
2024/03/29 04:13:18;;;;;;;0.70;0.68;;;;;;;;;;5861839;28;20052;-72
2024/03/29 04:16:08;;;;;;;1.55;1.05;;;;;;;;;;5861592;28;20064;-72
2024/03/29 04:18:58;;;;;;;0.60;0.60;;;;;;;;;;5861471;28;20057;-72
2024/03/29 04:21:48;;;;;;;0.70;0.70;;;;;;;;;;5861535;28;20156;-72
2024/03/29 04:24:37;;;;;;;1.25;0.60;;;;;;;;;;5861556;28;20132;-72
2024/03/29 04:27:28;;;;;;;0.50;0.50;;;;;;;;;;5861382;28;20076;-72
2024/03/29 04:30:17;;;;;;;2.42;2.17;;;;;;;;;;5861097;28;20053;-72
2024/03/29 04:33:07;;;;;;;5.55;3.13;;;;;;;;;;5859474;28;20049;-72
2024/03/29 04:36:00;;;;;;;3.55;3.17;;;;;;;;;;5860639;28;20503;-72
2024/03/29 04:38:50;;;;;;;4.03;3.42;;;;;;;;;;5860356;28;20059;-72
2024/03/29 04:41:40;;;;;;;2.70;2.17;;;;;;;;;;5860038;28;20104;-73
2024/03/29 04:44:29;;;;;;;4.60;2.90;;;;;;;;;;5860222;28;20057;-72
2024/03/29 04:47:19;;;;;;;1.30;0.82;;;;;;;;;;5860309;28;20110;-73
2024/03/29 04:50:09;;;;;;;1.58;1.10;;;;;;;;;;5861166;28;20059;-72
2024/03/29 04:52:59;;;;;;;1.63;1.17;;;;;;;;;;5861613;28;20487;-72
2024/03/29 04:55:55;;;;;;;1.33;1.23;;;;;;;;;;5860873;28;20076;-72
2024/03/29 04:58:48;;;;;;;3.42;1.13;;;;;;;;;;5860744;28;20049;-72
2024/03/29 05:01:39;;;;;;;0.93;0.93;;;;;;;;;;5844910;28;20467;-72
2024/03/29 05:04:28;;;;;;;0.95;0.90;;;;;;;;;;5860880;28;20128;-73
2024/03/29 05:07:18;;;;;;;1.10;0.80;;;;;;;;;;5859941;28;20053;-72
2024/03/29 05:10:12;;;;;;;3.00;1.20;;;;;;;;;;5860633;28;20474;-72
2024/03/29 05:13:01;;;;;;;1.23;1.13;;;;;;;;;;5860747;28;20045;-72
2024/03/29 05:15:52;;;;;;;0.52;0.52;;;;;;;;;;5861108;28;20100;-72
2024/03/29 05:18:42;;;;;;;1.02;1.02;;;;;;;;;;5860467;28;20456;-72
2024/03/29 05:21:31;;;;;;;1.02;0.93;;;;;;;;;;5860586;28;20049;-72
2024/03/29 05:24:21;;;;;;;1.25;0.85;;;;;;;;;;5860584;28;20057;-72
2024/03/29 05:27:12;;;;;;;1.10;1.10;;;;;;;;;;5860392;28;20057;-72
2024/03/29 05:30:03;;;;;;;2.33;1.13;;;;;;;;;;5860464;28;20056;-72
2024/03/29 05:32:53;;;;;;;0.75;0.70;;;;;;;;;;5844175;28;20115;-72
2024/03/29 05:35:43;;;;;;;1.00;0.88;;;;;;;;;;5860287;28;20459;-73
2024/03/29 05:38:32;;;;;;;0.80;0.80;;;;;;;;;;5860198;28;20454;-73
2024/03/29 05:41:23;;;;;;;2.47;1.17;;;;;;;;;;5860074;28;20107;-73
2024/03/29 05:44:13;;;;;;;0.68;0.50;;;;;;;;;;5860316;28;20064;-73
2024/03/29 05:47:04;;;;;;;3.55;0.98;;;;;;;;;;5860278;28;20053;-72
2024/03/29 05:49:54;;;;;;;1.20;0.93;;;;;;;;;;5860759;28;20045;-73
2024/03/29 05:52:44;;;;;;;0.73;0.73;;;;;;;;;;5860110;28;20053;-73
2024/03/29 05:55:34;;;;;;;1.08;0.98;;;;;;;;;;5860126;28;20041;-73
2024/03/29 05:58:23;;;;;;;0.98;0.95;;;;;;;;;;5860154;28;20068;-73
2024/03/29 06:01:13;;;;;;;0.77;0.50;;;;;;;;;;5859813;28;20057;-73
2024/03/29 06:04:08;;;;;;;3.45;1.20;;;;;;;;;;5860383;28;20053;-72
2024/03/29 06:07:03;;;;;;;6.32;1.65;;;;;;;;;;5860611;28;20447;-73
2024/03/29 06:09:53;;;;;;;1.63;0.98;;;;;;;;;;5860066;28;20111;-73
2024/03/29 06:12:42;;;;;;;0.88;0.73;;;;;;;;;;5859694;28;20041;-73
2024/03/29 06:18:41;;;;;;;0.55;0.55;;;;;;;;;;5848078;28;20056;-73
2024/03/29 06:21:40;;;;;;;0.63;0.55;;;;;;;;;;5864064;28;20622;-73
2024/03/29 06:24:32;;;;;;;3.72;1.10;;;;;;;;;;5864333;28;20037;-74
2024/03/29 06:27:22;;;;;;;0.50;0.50;;;;;;;;;;5864089;28;20446;-74
2024/03/29 06:30:13;;;;;;;1.10;1.00;;;;;;;;;;5864007;28;20049;-74
2024/03/29 06:33:03;;;;;;;0.98;0.70;;;;;;;;;;5847527;28;20461;-74
2024/03/29 06:35:56;;;;;;;0.85;0.85;;;;;;;;;;5864542;28;20049;-74
2024/03/29 06:38:46;;;;;;;0.73;0.60;;;;;;;;;;5863808;28;20121;-74
2024/03/29 06:41:36;;;;;;;7.03;0.57;;;;;;;;;;5863761;28;20705;-74
2024/03/29 06:44:25;;;;;;;0.57;0.57;;;;;;;;;;5864158;28;20055;-74
2024/03/29 06:47:15;;;;;;;2.28;1.00;;;;;;;;;;5863555;28;20495;-74
2024/03/29 06:50:06;;;;;;;2.00;1.00;;;;;;;;;;5863753;28;20141;-74
2024/03/29 06:52:55;;;;;;;10.43;1.02;;;;;;;;;;5864018;28;20737;-74
2024/03/29 06:55:45;;;;;;;0.55;0.55;;;;;;;;;;5863589;28;20045;-75
2024/03/29 06:58:35;;;;;;;0.30;0.30;;;;;;;;;;5863332;28;20176;-74
2024/03/29 07:01:25;;;;;;;2.78;0.30;;;;;;;;;;5863328;28;20502;-74
2024/03/29 07:04:14;;;;;;;0.55;0.45;;;;;;;;;;5863401;28;20470;-74
2024/03/29 07:07:04;;;;;;;0.63;0.40;;;;;;;;;;5863300;28;20045;-74
2024/03/29 07:09:54;;;;;;;0.70;0.45;;;;;;;;;;5863929;28;20062;-74
2024/03/29 07:12:44;;;;;;;0.55;0.43;;;;;;;;;;5879615;28;20133;-74
2024/03/29 07:15:33;;;;;;;0.32;0.32;;;;;;;;;;5863413;28;20049;-74
2024/03/29 07:18:23;;;;;;;0.57;0.47;;;;;;;;;;5863218;28;20601;-74
2024/03/29 07:21:13;;;;;;;0.65;0.60;;;;;;;;;;5863027;28;20045;-74
2024/03/29 07:24:03;;;;;;;0.68;0.68;;;;;;;;;;5863301;28;20049;-74
2024/03/29 07:26:53;;;;;;;1.42;0.50;;;;;;;;;;5863353;28;20050;-73
2024/03/29 07:29:44;;;;;;;2.15;0.70;;;;;;;;;;5861773;28;20045;-75
2024/03/29 07:32:34;;;;;;;2.25;1.15;;;;;;;;;;5862645;28;20041;-74
2024/03/29 07:35:23;;;;;;;1.08;0.43;;;;;;;;;;5862937;28;20127;-74
2024/03/29 07:38:16;;;;;;;2.00;0.50;;;;;;;;;;5862537;28;20130;-74
2024/03/29 07:41:08;;;;;;;0.57;0.50;;;;;;;;;;5862508;28;20068;-73
2024/03/29 07:44:03;;;;;;;0.38;0.30;;;;;;;;;;5863198;28;20056;-74
2024/03/29 07:46:53;;;;;;;0.22;0.22;;;;;;;;;;5862635;28;20046;-74
2024/03/29 07:49:42;;;;;;;2.55;0.30;;;;;;;;;;5862353;28;20045;-74
2024/03/29 07:52:33;;;;;;;1.08;0.40;;;;;;;;;;5862398;28;20075;-74
2024/03/29 07:55:23;;;;;;;0.22;0.20;;;;;;;;;;5862443;28;20403;-74
2024/03/29 07:58:13;;;;;;;0.30;0.22;;;;;;;;;;5862315;28;20337;-74
2024/03/29 08:01:03;;;;;;;2.72;0.65;;;;;;;;;;5862248;28;20111;-73
2024/03/29 08:03:53;;;;;;;0.35;0.32;;;;;;;;;;5862698;28;20045;-73
2024/03/29 08:06:43;;;;;;;0.55;0.50;;;;;;;;;;5862130;28;20049;-73
2024/03/29 08:09:33;;;;;;;0.57;0.45;;;;;;;;;;5862198;28;20530;-73
2024/03/29 08:12:22;;;;;;;0.28;0.20;;;;;;;;;;5862065;28;20053;-74
2024/03/29 08:15:12;;;;;;;3.42;0.70;;;;;;;;;;5861713;28;20068;-73
2024/03/29 08:18:02;;;;;;;0.73;0.47;;;;;;;;;;5845564;28;20053;-72
2024/03/29 08:20:52;;;;;;;0.30;0.30;;;;;;;;;;5862381;28;20046;-73
2024/03/29 08:23:46;;;;;;;0.50;0.40;;;;;;;;;;5861852;28;20057;-73
2024/03/29 08:26:36;;;;;;;0.40;0.38;;;;;;;;;;5861844;28;20045;-73
2024/03/29 08:29:25;;;;;;;0.40;0.40;;;;;;;;;;5861796;28;20049;-73
2024/03/29 08:32:15;;;;;;;0.77;0.55;;;;;;;;;;5861307;28;20054;-72
2024/03/29 08:35:05;;;;;;;0.20;0.20;;;;;;;;;;5861677;28;20515;-72
2024/03/29 08:37:55;;;;;;;0.25;0.25;;;;;;;;;;5862123;28;20099;-73
2024/03/29 08:40:47;;;;;;;1.17;0.90;;;;;;;;;;5861200;28;20511;-73
2024/03/29 08:43:37;;;;;;;1.25;0.43;;;;;;;;;;5861302;28;20049;-73
2024/03/29 08:46:28;;;;;;;1.58;0.65;;;;;;;;;;5861247;28;20087;-73
2024/03/29 08:49:17;;;;;;;0.40;0.40;;;;;;;;;;5861448;28;20182;-73
2024/03/29 08:52:07;;;;;;;0.10;0.10;;;;;;;;;;5861247;28;20045;-73
2024/03/29 08:54:57;;;;;;;1.38;0.50;;;;;;;;;;5861939;28;20065;-73
2024/03/29 08:57:47;;;;;;;0.45;0.30;;;;;;;;;;5861049;28;20451;-73
2024/03/29 09:00:37;;;;;;;0.10;0.10;;;;;;;;;;5861067;28;20037;-73
2024/03/29 09:03:27;;;;;;;3.28;1.15;;;;;;;;;;5861159;28;20052;-72
2024/03/29 09:06:16;;;;;;;0.08;0.03;;;;;;;;;;5860962;28;20076;-73
2024/03/29 09:09:07;;;;;;;0.80;0.50;;;;;;;;;;5860937;28;20077;-72
2024/03/29 09:11:58;;;;;;;0.60;0.17;;;;;;;;;;5861416;28;20455;-73
2024/03/29 09:14:47;;;;;;;1.55;0.38;;;;;;;;;;5860979;28;20049;-72
2024/03/29 09:17:37;;;;;;;0.47;0.47;;;;;;;;;;5860706;28;20060;-72
2024/03/29 09:20:27;;;;;;;2.25;0.40;;;;;;;;;;5860801;28;20037;-72
2024/03/29 09:23:20;;;;;;;0.77;0.55;;;;;;;;;;5844204;28;20423;-72
2024/03/29 09:26:10;;;;;;;1.58;0.40;;;;;;;;;;5860862;28;20045;-72
2024/03/29 09:29:00;;;;;;;0.47;0.38;;;;;;;;;;5861267;28;20045;-72
2024/03/29 09:31:50;;;;;;;0.63;0.60;;;;;;;;;;5860604;28;20049;-72
2024/03/29 09:34:40;;;;;;;0.20;0.20;;;;;;;;;;5860896;28;20068;-72
2024/03/29 09:37:29;;;;;;;0.20;0.20;;;;;;;;;;5860712;28;20053;-73
2024/03/29 09:40:20;;;;;;;0.88;0.50;;;;;;;;;;5860653;28;20057;-72
2024/03/29 09:43:12;;;;;;;0.63;0.45;;;;;;;;;;5860611;28;20133;-72
2024/03/29 09:46:03;;;;;;;2.95;0.60;;;;;;;;;;5860468;28;20156;-72
2024/03/29 09:48:53;;;;;;;0.80;0.25;;;;;;;;;;5860714;28;20045;-72
2024/03/29 09:51:44;;;;;;;0.40;0.30;;;;;;;;;;5860417;28;20042;-72
2024/03/29 09:54:34;;;;;;;2.53;1.05;;;;;;;;;;5864165;28;20046;-71
2024/03/29 09:57:29;;;;;;;0.32;0.15;;;;;;;;;;5864950;28;20045;-72
2024/03/29 10:00:19;;;;;;;0.75;0.40;;;;;;;;;;5865010;28;20049;-72
2024/03/29 10:03:10;;;;;;;0.52;0.40;;;;;;;;;;5832150;28;20061;-72
2024/03/29 10:06:00;;;;;;;0.10;0.10;;;;;;;;;;5849103;28;20053;-71
2024/03/29 10:08:52;;;;;;;0.80;0.40;;;;;;;;;;5864886;28;20499;-73
2024/03/29 10:11:42;;;;;;;0.00;0.00;;;;;;;;;;5864764;28;20491;-72
2024/03/29 10:14:31;;;;;;;0.13;0.13;;;;;;;;;;5864902;28;20407;-72
2024/03/29 10:17:21;;;;;;;0.10;0.10;;;;;;;;;;5864744;28;20049;-72
2024/03/29 10:20:11;;;;;;;1.23;0.28;;;;;;;;;;5864276;28;20141;-72
2024/03/29 10:23:03;;;;;;;0.30;0.30;;;;;;;;;;5864706;28;20054;-70
2024/03/29 10:25:53;;;;;;;0.20;0.20;;;;;;;;;;5864835;28;20054;-71
2024/03/29 10:28:43;;;;;;;0.32;0.28;;;;;;;;;;5864523;28;20053;-71
2024/03/29 10:31:36;;;;;;;0.28;0.20;;;;;;;;;;5864277;28;20042;-71
2024/03/29 10:34:27;;;;;;;0.98;0.28;;;;;;;;;;5864083;28;20053;-71
2024/03/29 10:37:26;;;;;;;2.65;0.65;;;;;;;;;;5864219;28;20150;-71
2024/03/29 10:40:18;;;;;;;1.65;0.90;;;;;;;;;;5864054;28;20045;-72
2024/03/29 10:43:16;;;;;;;0.03;0.03;;;;;;;;;;5864044;28;20461;-72
2024/03/29 10:46:06;;;;;;;0.30;0.17;;;;;;;;;;5864254;28;20383;-71
2024/03/29 10:48:57;;;;;;;1.35;0.40;;;;;;;;;;5847909;28;20061;-72
2024/03/29 10:51:47;;;;;;;0.90;0.22;;;;;;;;;;5864062;28;20061;-72
2024/03/29 10:54:37;;;;;;;0.60;0.22;;;;;;;;;;5863949;28;20045;-72
2024/03/29 10:57:28;;;;;;;0.00;0.00;;;;;;;;;;5863791;28;20049;-72
2024/03/29 11:00:21;;;;;;;0.75;0.45;;;;;;;;;;5863664;28;20045;-71
2024/03/29 11:03:40;;;;;;;0.20;0.20;;;;;;;;;;5863107;28;20053;-71
2024/03/29 11:06:37;;;;;;;0.10;0.10;;;;;;;;;;5855799;28;20083;-71
2024/03/29 11:09:29;;;;;;;0.22;0.20;;;;;;;;;;5848467;28;20034;-72
2024/03/29 11:12:22;;;;;;;3.80;0.30;;;;;;;;;;5867665;28;20049;-71
2024/03/29 11:15:22;;;;;;;0.10;0.10;;;;;;;;;;5869807;28;20049;-71
2024/03/29 11:18:13;;;;;;;0.93;0.50;;;;;;;;;;5903707;28;20469;-72
2024/03/29 11:21:08;;;;;;;0.20;0.10;;;;;;;;;;5875867;28;20057;-71
2024/03/29 11:24:01;;;;;;;0.45;0.30;;;;;;;;;;5876340;28;20041;-72
2024/03/29 11:26:50;;;;;;;0.10;0.10;;;;;;;;;;5887156;28;20044;-71
2024/03/29 11:29:45;;;;;;;0.20;0.20;;;;;;;;;;5886881;28;20048;-70
2024/03/29 11:32:41;;;;;;;0.05;0.05;;;;;;;;;;5882069;28;20473;-71
2024/03/29 11:35:33;;;;;;;0.30;0.17;;;;;;;;;;5867182;28;20037;-72
2024/03/29 11:38:34;;;;;;;1.13;0.32;;;;;;;;;;5886526;28;20044;-72
2024/03/29 11:41:27;;;;;;;0.90;0.20;;;;;;;;;;5857054;28;20794;-72
2024/03/29 11:44:16;;;;;;;0.22;0.10;;;;;;;;;;5859409;28;20152;-72
2024/03/29 11:47:08;;;;;;;0.13;0.10;;;;;;;;;;5886155;28;20056;-71
2024/03/29 11:49:59;;;;;;;1.65;0.47;;;;;;;;;;5870419;28;20049;-72
2024/03/29 11:52:49;;;;;;;1.00;0.63;;;;;;;;;;5886232;28;20056;-71
2024/03/29 11:55:39;;;;;;;1.48;0.40;;;;;;;;;;5885763;28;20045;-71
2024/03/29 11:58:31;;;;;;;0.60;0.50;;;;;;;;;;5876958;28;20044;-72
2024/03/29 12:01:21;;;;;;;0.10;0.10;;;;;;;;;;5860960;28;20524;-71
2024/03/29 12:04:20;;;;;;;2.08;0.47;;;;;;;;;;5867684;28;20045;-72
2024/03/29 12:07:10;;;;;;;5.60;0.43;;;;;;;;;;5846275;28;20052;-71
2024/03/29 12:10:00;;;;;;;0.47;0.38;;;;;;;;;;5851808;28;20413;-72
2024/03/29 12:12:57;;;;;;;0.68;0.30;;;;;;;;;;5886382;28;20072;-72
2024/03/29 12:15:46;;;;;;;6.05;0.30;;;;;;;;;;5861824;28;20057;-72
2024/03/29 12:18:39;;;;;;;0.30;0.10;;;;;;;;;;5875277;28;20495;-72
2024/03/29 12:21:30;;;;;;;0.17;0.17;;;;;;;;;;5864891;28;20041;-72
2024/03/29 12:24:20;;;;;;;0.25;0.17;;;;;;;;;;5827916;28;20052;-72
2024/03/29 12:27:11;;;;;;;0.10;0.10;;;;;;;;;;5882190;28;20041;-71
2024/03/29 12:30:01;;;;;;;0.50;0.10;;;;;;;;;;5885118;28;20049;-72
2024/03/29 12:33:28;;;;;;;2.05;0.25;;;;;;;;;;5884609;28;20094;-72
2024/03/29 12:36:27;;;;;;;0.10;0.10;;;;;;;;;;5856267;28;20774;-72
2024/03/29 12:39:21;;;;;;;0.30;0.30;;;;;;;;;;5884135;28;20052;-72
2024/03/29 12:42:13;;;;;;;0.20;0.10;;;;;;;;;;5874718;28;20052;-72
2024/03/29 12:45:05;;;;;;;4.90;0.45;;;;;;;;;;5841305;28;20048;-72
2024/03/29 12:47:58;;;;;;;0.38;0.10;;;;;;;;;;5876978;28;20095;-72
2024/03/29 12:50:52;;;;;;;0.10;0.10;;;;;;;;;;5876186;28;20053;-72
2024/03/29 12:53:42;;;;;;;0.10;0.10;;;;;;;;;;5884408;28;20059;-72
2024/03/29 12:56:32;;;;;;;0.03;0.00;;;;;;;;;;5884270;28;20048;-72
2024/03/29 12:59:21;;;;;;;0.35;0.10;;;;;;;;;;5866970;28;20048;-72
2024/03/29 13:02:11;;;;;;;1.02;0.68;;;;;;;;;;5851186;28;20044;-72
2024/03/29 13:05:04;;;;;;;2.75;0.13;;;;;;;;;;5884028;28;20048;-72
2024/03/29 13:07:56;;;;;;;0.03;0.03;;;;;;;;;;5884618;28;20056;-72
2024/03/29 13:10:46;;;;;;;0.25;0.20;;;;;;;;;;5884133;28;20041;-72
2024/03/29 13:13:36;;;;;;;0.63;0.52;;;;;;;;;;5883883;28;20044;-73
2024/03/29 13:16:26;;;;;;;0.08;0.08;;;;;;;;;;5884353;28;20052;-72
2024/03/29 13:19:16;;;;;;;0.70;0.10;;;;;;;;;;5883951;28;20069;-72
2024/03/29 13:22:11;;;;;;;0.47;0.20;;;;;;;;;;5868174;28;20147;-72
2024/03/29 13:25:01;;;;;;;0.25;0.22;;;;;;;;;;5883895;28;20045;-72
2024/03/29 13:27:54;;;;;;;0.10;0.10;;;;;;;;;;5885213;28;20059;-72
2024/03/29 13:30:45;;;;;;;0.13;0.13;;;;;;;;;;5888775;28;20056;-72
2024/03/29 13:33:35;;;;;;;0.10;0.10;;;;;;;;;;5854595;28;20045;-73
2024/03/29 13:36:25;;;;;;;13.55;0.35;;;;;;;;;;5885028;28;20041;-72
2024/03/29 13:39:16;;;;;;;0.30;0.10;;;;;;;;;;5888487;28;20045;-73
2024/03/29 13:42:05;;;;;;;0.10;0.10;;;;;;;;;;5888319;28;20132;-73
2024/03/29 13:44:55;;;;;;;0.20;0.20;;;;;;;;;;5888825;28;20128;-72
2024/03/29 13:47:48;;;;;;;10.43;0.35;;;;;;;;;;5888284;28;20056;-72
2024/03/29 13:50:38;;;;;;;0.45;0.20;;;;;;;;;;5888202;28;20052;-72
2024/03/29 13:53:29;;;;;;;0.32;0.22;;;;;;;;;;5888262;28;20048;-73
2024/03/29 13:56:19;;;;;;;0.28;0.22;;;;;;;;;;5887897;28;20063;-73
2024/03/29 13:59:08;;;;;;;0.55;0.25;;;;;;;;;;5887965;28;20049;-72
2024/03/29 14:01:58;;;;;;;1.65;0.50;;;;;;;;;;5888189;28;20048;-73
2024/03/29 14:04:49;;;;;;;0.10;0.10;;;;;;;;;;5887968;28;20131;-72
2024/03/29 14:07:39;;;;;;;0.08;0.08;;;;;;;;;;5887964;28;20052;-73
2024/03/29 14:10:30;;;;;;;0.20;0.13;;;;;;;;;;5888137;28;20048;-72
2024/03/29 14:13:20;;;;;;;0.60;0.25;;;;;;;;;;5887617;28;20052;-72
2024/03/29 14:16:09;;;;;;;2.92;0.28;;;;;;;;;;5887803;28;20083;-73
2024/03/29 14:18:59;;;;;;;1.02;0.25;;;;;;;;;;5888133;28;20079;-72
2024/03/29 14:21:49;;;;;;;5.43;2.22;;;;;;;;;;5887702;28;20052;-72
2024/03/29 14:24:39;;;;;;;0.50;0.22;;;;;;;;;;5887553;28;20735;-73
2024/03/29 14:27:30;;;;;;;0.55;0.32;;;;;;;;;;5870998;28;20876;-72
2024/03/29 14:30:22;;;;;;;5.72;2.80;;;;;;;;;;5887515;28;20049;-72
2024/03/29 14:33:12;;;;;;;2.08;0.40;;;;;;;;;;5887333;28;20048;-72
2024/03/29 14:36:03;;;;;;;2.88;0.90;;;;;;;;;;5887542;28;20082;-72
2024/03/29 14:38:54;;;;;;;5.40;0.88;;;;;;;;;;5887138;28;20049;-72
2024/03/29 14:41:46;;;;;;;2.58;1.58;;;;;;;;;;5887121;28;20045;-72
2024/03/29 14:44:36;;;;;;;4.72;2.38;;;;;;;;;;5887210;28;20429;-72
2024/03/29 14:47:25;;;;;;;8.05;1.08;;;;;;;;;;5887054;28;20045;-72
2024/03/29 14:50:15;;;;;;;0.57;0.38;;;;;;;;;;5887122;28;20049;-72
2024/03/29 14:53:05;;;;;;;0.40;0.30;;;;;;;;;;5886954;28;20061;-72
2024/03/29 14:55:55;;;;;;;0.20;0.20;;;;;;;;;;5887602;28;20053;-73
2024/03/29 14:58:46;;;;;;;0.63;0.47;;;;;;;;;;5886460;28;20124;-73
2024/03/29 15:01:37;;;;;;;0.60;0.45;;;;;;;;;;5886670;28;20052;-72
2024/03/29 15:04:26;;;;;;;0.00;0.00;;;;;;;;;;5886765;28;20041;-72
2024/03/29 15:07:16;;;;;;;5.53;0.63;;;;;;;;;;5886810;28;20049;-72
2024/03/29 15:10:10;;;;;;;1.70;0.68;;;;;;;;;;5886198;28;20044;-72
2024/03/29 15:12:59;;;;;;;7.30;1.73;;;;;;;;;;5887097;28;20048;-72
2024/03/29 15:16:00;;;;;;;0.73;0.73;;;;;;;;;;5886581;28;20056;-72
2024/03/29 15:18:50;;;;;;;2.40;1.65;;;;;;;;;;5886614;28;20045;-72
2024/03/29 15:21:40;;;;;;;1.55;1.20;;;;;;;;;;5886538;28;20506;-72
2024/03/29 15:24:30;;;;;;;9.00;5.68;;;;;;;;;;5886081;28;20048;-74
2024/03/29 15:30:28;;;;;;;;;;;;;;;;;;5871478;28;20051;-72
2024/03/29 15:33:17;;;;;;;6.72;2.00;;;;;;;;;;5882656;28;19925;-72
2024/03/29 15:36:07;;;;;;;15.90;6.60;;;;;;;;;;5883239;28;20449;-70
2024/03/29 15:39:05;;;;;;;9.35;5.65;;;;;;;;;;5855244;28;20450;-71
2024/03/29 15:41:54;;;;;;;6.78;3.75;;;;;;;;;;5871504;28;20050;-72
2024/03/29 15:44:44;;;;;;;14.27;8.00;;;;;;;;;;5874637;28;20057;-72
2024/03/29 15:47:34;;;;;;;6.05;2.55;;;;;;;;;;5875214;28;20048;-72
2024/03/29 15:50:24;;;;;;;1.27;0.43;;;;;;;;;;5871927;28;20049;-72
2024/03/29 15:53:14;;;;;;;2.25;0.65;;;;;;;;;;5872357;28;20472;-68
2024/03/29 15:56:05;;;;;;;1.67;0.77;;;;;;;;;;5880689;28;20053;-69
2024/03/29 15:58:56;;;;;;;5.93;1.00;;;;;;;;;;5868416;28;20166;-69
2024/03/29 16:01:46;;;;;;;1.38;0.60;;;;;;;;;;5886133;28;20041;-69
2024/03/29 16:04:36;;;;;;;2.40;1.02;;;;;;;;;;5883620;28;20052;-71
2024/03/29 16:07:26;;;;;;;1.17;0.65;;;;;;;;;;5874016;28;20630;-71
2024/03/29 16:10:16;;;;;;;1.38;0.68;;;;;;;;;;5871400;28;20047;-72
2024/03/29 16:13:05;;;;;;;0.57;0.38;;;;;;;;;;5875770;28;20057;-72
2024/03/29 16:15:59;;;;;;;2.03;0.70;;;;;;;;;;5860557;28;20057;-72
2024/03/29 16:18:49;;;;;;;5.25;1.25;;;;;;;;;;5881857;28;20654;-72
2024/03/29 16:21:38;;;;;;;2.92;0.73;;;;;;;;;;5882843;28;20079;-72
2024/03/29 16:24:28;;;;;;;4.47;0.90;;;;;;;;;;5884121;28;20052;-72
2024/03/29 16:27:18;;;;;;;2.85;1.00;;;;;;;;;;5876688;28;20057;-72
2024/03/29 16:30:08;;;;;;;2.60;1.55;;;;;;;;;;5857853;28;20037;-72
2024/03/29 16:33:00;;;;;;;1.13;0.47;;;;;;;;;;5865263;28;20045;-73
2024/03/29 16:35:53;;;;;;;0.40;0.40;;;;;;;;;;5858151;28;20052;-72
2024/03/29 16:38:43;;;;;;;2.75;1.00;;;;;;;;;;5857179;28;20053;-73
2024/03/29 16:41:46;;;;;;;0.45;0.32;;;;;;;;;;5841165;28;20045;-72
2024/03/29 16:44:35;;;;;;;0.32;0.32;;;;;;;;;;5859650;28;20045;-72
2024/03/29 16:47:25;;;;;;;1.17;0.70;;;;;;;;;;5870046;28;20080;-72
2024/03/29 16:50:15;;;;;;;1.63;0.93;;;;;;;;;;5853644;28;20446;-72
2024/03/29 16:53:05;;;;;;;4.22;0.82;;;;;;;;;;5856755;28;20049;-72
2024/03/29 16:55:54;;;;;;;2.38;1.20;;;;;;;;;;5869873;28;20789;-72
2024/03/29 16:58:47;;;;;;;3.25;0.90;;;;;;;;;;5868076;28;20103;-72
2024/03/29 17:01:37;;;;;;;4.28;1.35;;;;;;;;;;5884359;28;20457;-72
2024/03/29 17:04:27;;;;;;;5.88;0.55;;;;;;;;;;5880477;28;20060;-72
2024/03/29 17:07:20;;;;;;;2.28;0.95;;;;;;;;;;5884667;28;20592;-72
2024/03/29 17:10:11;;;;;;;4.40;0.82;;;;;;;;;;5875379;28;20074;-72
2024/03/29 17:13:02;;;;;;;1.08;0.73;;;;;;;;;;5876283;28;20049;-71